Valley Peak, Santa Cruz Island Reserve, California Weather observations

Data are for 10 minute period ending at time listed.
 Day   Time   Solar   Ave.   Ave.  Ave.  Vector  Max.   Baro.   Total    
  of    of     Rad.   Air    Rel.  Wind   Wind   Wind  Press.  Precip.   
Year   Day            Temp.  Hum.  Speed  Dir.   Gust                    
2014   (PST)  Kw/m2    F      %     mph   deg.    mph    mb.     in.     
-------------------------------------------------------------------------
 231   10:20   0.35   70.9    69    4.7   125    10.9   963.3    0.00 
 231   10:30   0.31   70.2    71    5.1   120    10.7   963.4    0.00 
 231   10:40   0.27   69.1    74    5.9   122    10.1   963.4    0.00 
 231   10:50   0.28   68.2    77    4.9   126    10.7   963.3    0.00 
 231   11:00   0.38   68.8    76    5.4   122     9.6   963.3    0.00 
 231   11:10   0.51   71.0    70    4.5   127    11.1   963.3    0.00 
 231   11:20   0.70   71.7    68    5.0   129     9.5   963.3    0.00 
 231   11:30   0.57   72.5    66    5.1   131    11.3   963.3    0.00 
 231   11:40   0.40   72.7    65    5.0   116    10.0   963.2    0.00 
 231   11:50   0.42   72.2    66    3.8   108     9.8   963.1    0.00 
 231   12:00   0.32   70.9    68    4.5    84    10.0   963.0    0.00 
 231   12:10   0.38   70.9    68    2.8    80     5.8   962.9    0.00 
 231   12:20   0.51   72.4    64    4.3   119     8.8   962.8    0.00 
 231   12:30   0.42   72.8    64    4.0    93    11.5   962.8    0.00 
 231   12:40   0.35   71.9    66    3.8    62     6.9   962.8    0.00 
 231   12:50   0.37   70.8    68    2.8    62     5.9   962.7    0.00 
 231   13:00   0.37   71.0    68    4.3    73     7.5   962.7    0.00 
 231   13:10   0.36   71.2    68    3.9    66     6.4   962.7    0.00 
 231   13:20   0.35   71.5    67    2.7    84     6.8   962.7    0.00 
 231   13:30   0.70   72.8    66    4.0   118     8.0   962.6    0.00 
 231   13:40   0.91   76.4    59    3.6    95     8.2   962.4    0.00 
 231   13:50   0.86   77.7    56    4.7   110     9.5   962.4    0.00 
 231   14:00   0.82   77.1    57    6.3   115    11.1   962.5    0.00 
 231   14:10   0.79   76.8    57    5.6    89     9.3   962.5    0.00 
 231   14:20   0.77   76.4    58    4.9    96     9.2   962.5    0.00 
 231   14:30   0.74   77.0    56    4.3    93    11.4   962.4    0.00 
 231   14:40   0.73   75.7    59    4.7    77     8.2   962.4    0.00 
 231   14:50   0.69   74.7    60    4.2    81     7.8   962.3    0.00 
 231   15:00   0.66   75.1    60    4.3    82     7.5   962.2    0.00 
 231   15:10   0.63   75.7    58    3.4    66     5.3   962.2    0.00 
 231   15:20   0.59   75.8    58    3.1    65     5.6   962.1    0.00 
 231   15:30   0.57   74.9    60    3.4    85     7.4   961.9    0.00 
 231   15:40   0.54   75.7    58    3.8    81     8.6   961.9    0.00 
 231   15:50   0.50   76.0    58    3.8    91     8.6   961.8    0.00 
 231   16:00   0.47   75.8    58    3.7    89     7.2   961.8    0.00 
 231   16:10   0.44   75.7    58    2.5    68     4.7   961.8    0.00 
 231   16:20   0.41   76.1    58    3.2    94     5.7   961.8    0.00 
 231   16:30   0.37   75.6    58    2.6    60     5.3   961.7    0.00 
 231   16:40   0.34   75.0    59    1.8    74     4.2   961.7    0.00 
 231   16:50   0.27   74.8    59    2.7    87     5.8   961.6    0.00 
 231   17:00   0.10   71.5    64    1.8   114     4.3   961.6    0.00 
 231   17:10   0.11   67.8    73    1.7   133     5.6   961.5    0.00 
 231   17:20   0.10   66.6    77    2.0   136     5.6   961.4    0.00 
 231   17:30   0.06   65.6    80    2.4   121     5.7   961.3    0.00 
 231   17:40   0.04   65.1    79    2.6    86     4.8   961.3    0.00 
 231   17:50   0.03   64.3    79    2.1    68     4.1   961.3    0.00 
 231   18:00   0.03   63.3    81    2.4    46     4.7   961.4    0.00 
 231   18:10   0.03   62.9    82    1.8    55     3.1   961.4    0.00 
 231   18:20   0.02   62.8    82    2.7    37     4.6   961.6    0.00 
 231   18:30   0.00   62.1    84    1.3    52     3.4   961.7    0.00 
 231   18:40   0.00   62.2    83    0.3    56     1.4   961.8    0.00 
 231   18:50   0.00   62.0    85    0.6   135     3.1   961.9    0.00 
 231   19:00   0.00   61.8    85    1.5    67     2.9   962.0    0.00 
 231   19:10   0.00   61.8    86    1.8    87     2.9   962.0    0.00 
 231   19:20   0.00   61.6    85    1.9    50     2.9   962.1    0.00 
 231   19:30   0.00   61.0    87    2.1    48     3.1   962.2    0.00 
 231   19:40   0.00   60.9    87    1.9    49     3.6   962.3    0.00 
 231   19:50   0.00   60.4    88    2.0    94     3.1   962.4    0.00 
 231   20:00   0.00   60.3    91    2.6   206     3.7   962.5    0.00 
 231   20:10   0.00   60.2    91    2.2   211     4.0   962.6    0.00 
 231   20:20   0.00   60.3    92    2.0   163     3.4   962.6    0.00 
 231   20:30   0.00   60.2    91    1.0   163     2.9   962.7    0.00 
 231   20:40   0.00   59.4    91    3.7    33     5.5   962.8    0.00 
 231   20:50   0.00   58.8    93    4.1    36     5.6   962.8    0.00 
 231   21:00   0.00   58.6    94    2.9    44     4.7   962.9    0.00 
 231   21:10   0.00   58.8    94    1.8    54     3.7   962.9    0.00 
 231   21:20   0.00   59.0    92    2.1   268     3.7   962.8    0.00 
 231   21:30   0.00   59.1    92    2.5   285     3.4   962.8    0.00 
 231   21:40   0.00   59.0    92    2.8   245     3.6   962.8    0.00 
 231   21:50   0.00   58.8    92    4.0   225     5.5   962.7    0.00 
 231   22:00   0.00   58.5    93    6.3   212     8.3   962.7    0.00 
 231   22:10   0.00   58.3    92    7.6   220     9.4   962.6    0.00 
 231   22:20   0.00   58.4    92    8.3   224    11.0   962.6    0.00 
 231   22:30   0.00   58.5    92    7.9   217     9.6   962.6    0.00 
 231   22:40   0.00   58.5    92    7.4   214     8.9   962.7    0.00 
 231   22:50   0.00   58.6    92    7.1   214     9.2   962.6    0.00 
 231   23:00   0.00   59.1    92    6.7   192    10.4   962.7    0.00 
 231   23:10   0.00   59.4    91    5.6   197     7.2   962.8    0.00 
 231   23:20   0.00   59.8    91    5.3   181     6.6   962.9    0.00 
 231   23:30   0.00   60.0    91    3.9   166     6.2   963.0    0.00 
 231   23:40   0.00   60.1    91    2.6   146     4.5   963.0    0.00 
 231   23:50   0.00   60.3    91    2.4   145     4.7   963.1    0.00 
 232    0:00   0.00   60.4    91    1.8   144     4.2   963.1    0.00 
 232    0:10   0.00   60.4    91    1.4   142     3.4   963.2    0.00 
 232    0:20   0.00   60.2    91    2.3   185     3.9   963.2    0.00 
 232    0:30   0.00   60.2    91    0.5   149     2.4   963.1    0.00 
 232    0:40   0.00   60.3    92    2.0   113     4.3   963.0    0.00 
 232    0:50   0.00   60.3    91    2.2   140     4.1   962.9    0.00 
 232    1:00   0.00   60.1    92    1.9   128     5.7   962.8    0.00 
 232    1:10   0.00   60.1    92    2.7   125     5.8   962.8    0.00 
 232    1:20   0.00   60.0    92    1.3   137     4.0   962.8    0.00 
 232    1:30   0.00   60.0    92    1.0   150     3.4   962.8    0.00 
 232    1:40   0.00   59.8    92    1.8   194     4.2   962.9    0.00 
 232    1:50   0.00   59.8    92    2.2   193     3.6   963.0    0.00 
 232    2:00   0.00   59.7    92    1.7   151     3.5   962.9    0.00 
 232    2:10   0.00   59.8    92    0.6   126     2.3   963.0    0.00 
 232    2:20   0.00   59.8    93    1.1   106     3.5   963.0    0.00 
 232    2:30   0.00   59.6    94    0.9   180     2.3   963.0    0.00 
 232    2:40   0.00   59.5    94    1.8   206     3.7   963.0    0.00 
 232    2:50   0.00   59.1    94    1.7   294     2.8   963.1    0.00 
 232    3:00   0.00   59.1    94    3.5    96     8.8   963.0    0.00 
 232    3:10   0.00   59.6    93    2.7   117     7.5   963.0    0.00 
 232    3:20   0.00   59.8    92    1.0   145     3.2   963.1    0.00 
 232    3:30   0.00   59.8    92    2.5    81     5.1   963.2    0.00 
 232    3:40   0.00   59.9    92    1.9   104     4.5   963.3    0.00 
 232    3:50   0.00   59.9    92    3.9    75     7.2   963.2    0.00 
 232    4:00   0.00   59.8    92    1.9   101     4.8   963.2    0.00 
 232    4:10   0.00   59.8    92    1.3    65     4.1   963.3    0.00 
 232    4:20   0.00   59.2    96    4.0    33     5.7   963.3    0.00 
 232    4:30   0.00   58.9    97    5.0    37     6.6   963.4    0.00 
 232    4:40   0.00   58.9    97    4.7    44     5.9   963.4    0.00 
 232    4:50   0.00   58.9    97    4.7    50     7.2   963.5    0.00 
 232    5:00   0.00   58.9    98    5.9    47     8.2   963.5    0.00 
 232    5:10   0.00   58.7    98    5.7    40     8.3   963.6    0.00 
 232    5:20   0.00   58.5    98    5.5    50     8.3   963.7    0.00 
 232    5:30   0.00   58.5    98    6.7    50     9.1   963.7    0.00 
 232    5:40   0.00   58.5    98    6.0    46     8.7   963.8    0.00 
 232    5:50   0.00   58.5    98    5.1    64     7.1   963.9    0.00 
 232    6:00   0.01   58.6    97    6.1    70     9.1   964.0    0.00 
 232    6:10   0.02   59.1    95    3.6    90     6.7   964.1    0.00 
 232    6:20   0.02   59.7    92    1.8   101     3.6   964.1    0.00 
 232    6:30   0.03   60.3    91    1.4   150     3.5   964.1    0.00 
 232    6:40   0.04   60.7    90    1.4   148     3.7   964.2    0.00 
 232    6:50   0.04   60.6    90    2.5   120     7.1   964.2    0.00 
 232    7:00   0.04   60.1    93    5.5    34     9.0   964.3    0.00 
 232    7:10   0.03   59.0    96    6.0    32     9.0   964.4    0.00 
 232    7:20   0.04   58.4    97    5.2    25     8.2   964.5    0.00 
 232    7:30   0.09   58.7    97    6.1    42     8.8   964.5    0.00 
 232    7:40   0.10   59.9    94    5.6    34     8.6   964.6    0.00 
 232    7:50   0.11   60.4    92    5.9    37     8.5   964.7    0.00 
 232    8:00   0.17   61.2    90    5.4    40     8.3   964.8    0.00 
 232    8:10   0.21   62.6    85    5.4    54     9.0   964.8    0.00 
 232    8:20   0.32   64.3    79    5.3    67     9.1   964.8    0.00 
 232    8:30   0.46   66.9    71    4.0    95     7.7   964.7    0.00 
 232    8:40   0.47   68.8    68    4.5    91     9.1   964.7    0.00 
 232    8:50   0.39   68.0    73    3.5    57     6.6   964.8    0.00 
 232    9:00   0.52   66.5    76    2.8    54     8.3   964.8    0.00 
 232    9:10   0.45   67.4    74    3.0    72     6.4   964.8    0.00 
 232    9:20   0.57   69.1    68    3.2   110     7.4   964.9    0.00 
 232    9:30   0.53   70.7    64    3.7   118    10.2   964.9    0.00 
 232    9:40   0.68   70.2    65    4.2    94     8.3   964.8    0.00 
 232    9:50   0.70   69.7    66    4.5    83    12.4   964.9    0.00 
 232   10:00   0.72   70.9    62    4.9   116    10.7   964.9    0.00 
 232   10:10   0.90   73.5    58    3.9   113     8.2   964.9    0.00 

Return to Valley Peak, Santa Cruz Island Reserve graphs page.


Western Regional Climate Center,wrcc@dri.edu